Time;durP1;ratioP1;P1;durP2;ratioP2;P2;SDS_P1;SDS_P2;PMS_P1;PMS_P2;Temp;Humidity;BMP_temperature;BMP_pressure;BME280_temperature;BME280_humidity;BME280_pressure;Samples;Min_cycle;Max_cycle;Signal;HPM_P1;HPM_P2
2023/08/13 00:00:23;;;;;;;7.03;1.27;;;16.70;99.90;;;;;;4999075;28;20033;-86
2023/08/13 00:02:48;;;;;;;6.45;1.10;;;16.70;99.90;;;;;;4990152;28;20026;-86
2023/08/13 00:05:14;;;;;;;7.18;1.27;;;16.60;99.90;;;;;;4991063;28;20030;-86
2023/08/13 00:07:40;;;;;;;7.50;1.55;;;16.60;99.90;;;;;;4989372;28;20116;-86
2023/08/13 00:10:06;;;;;;;7.95;1.40;;;16.50;99.90;;;;;;4989597;28;20503;-85
2023/08/13 00:12:32;;;;;;;4.82;1.10;;;16.40;99.90;;;;;;4983139;28;20027;-85
2023/08/13 00:14:57;;;;;;;5.15;1.30;;;16.40;99.90;;;;;;4985655;28;20085;-86
2023/08/13 00:17:23;;;;;;;9.05;1.48;;;16.40;99.90;;;;;;5002672;28;20026;-86
2023/08/13 00:19:48;;;;;;;6.60;1.52;;;16.30;99.90;;;;;;4989237;28;20029;-86
2023/08/13 00:22:14;;;;;;;7.40;1.10;;;16.30;99.90;;;;;;4982456;28;20033;-86
2023/08/13 00:24:40;;;;;;;10.07;1.60;;;16.30;99.90;;;;;;4991225;28;20030;-86
2023/08/13 00:27:05;;;;;;;9.05;1.48;;;16.20;99.90;;;;;;4984655;28;20121;-87
2023/08/13 00:29:33;;;;;;;8.80;1.25;;;16.20;99.90;;;;;;4987453;28;20459;-86
2023/08/13 00:31:58;;;;;;;7.32;1.20;;;16.10;99.90;;;;;;4993057;28;20512;-86
2023/08/13 00:34:24;;;;;;;9.90;1.00;;;16.10;99.90;;;;;;4979555;28;20035;-84
2023/08/13 00:36:49;;;;;;;6.38;1.30;;;16.10;99.90;;;;;;4978571;28;20022;-86
2023/08/13 00:39:15;;;;;;;7.38;0.93;;;16.10;99.90;;;;;;5005974;28;20034;-85
2023/08/13 00:41:40;;;;;;;8.95;1.35;;;16.00;99.90;;;;;;4978987;28;20054;-86
2023/08/13 00:44:06;;;;;;;8.52;1.27;;;16.00;99.90;;;;;;4985042;28;20035;-85
2023/08/13 00:46:32;;;;;;;7.88;1.50;;;16.00;99.90;;;;;;4978435;28;20435;-85
2023/08/13 00:48:59;;;;;;;5.60;0.98;;;16.00;99.90;;;;;;5005868;28;20029;-86
2023/08/13 00:51:26;;;;;;;6.40;1.00;;;15.90;99.90;;;;;;4990724;28;20391;-85
2023/08/13 00:53:52;;;;;;;8.05;2.20;;;15.90;99.90;;;;;;4984467;28;20137;-85
2023/08/13 00:56:18;;;;;;;13.07;1.70;;;15.90;99.90;;;;;;4992183;28;20475;-85
2023/08/13 00:58:44;;;;;;;5.32;0.90;;;15.90;99.90;;;;;;4991563;28;20033;-85
2023/08/13 01:01:11;;;;;;;6.30;0.95;;;15.90;99.90;;;;;;4985132;28;20029;-84
2023/08/13 01:03:37;;;;;;;8.50;1.23;;;15.80;99.90;;;;;;5012024;28;20023;-85
2023/08/13 01:06:24;;;;;;;5.50;1.08;;;15.80;99.90;;;;;;4989084;28;20581;-85
2023/08/13 01:09:06;;;;;;;8.27;1.67;;;15.80;99.90;;;;;;4982610;28;20117;-85
2023/08/13 01:11:58;;;;;;;7.50;1.57;;;15.80;99.90;;;;;;4992139;28;20034;-85
2023/08/13 01:14:32;;;;;;;;;;;15.80;99.90;;;;;;4999023;28;20285;-85
2023/08/13 01:16:59;;;;;;;7.55;0.82;;;15.70;99.90;;;;;;4997152;28;20004;-85
2023/08/13 01:19:25;;;;;;;9.02;1.63;;;15.70;99.90;;;;;;4991822;28;20575;-86
2023/08/13 01:21:51;;;;;;;7.60;1.65;;;15.70;99.90;;;;;;4991136;28;20018;-85
2023/08/13 01:24:16;;;;;;;8.52;1.10;;;15.70;99.90;;;;;;4984304;28;20026;-85
2023/08/13 01:26:58;;;;;;;7.18;1.38;;;15.70;99.90;;;;;;4986595;28;20088;-88
2023/08/13 01:29:46;;;;;;;6.60;1.13;;;15.70;99.90;;;;;;4986578;28;20029;-85
2023/08/13 01:32:14;;;;;;;12.75;1.30;;;15.60;99.90;;;;;;4987901;28;20030;-86
2023/08/13 01:34:41;;;;;;;10.80;0.88;;;15.60;99.90;;;;;;4985330;28;20035;-86
2023/08/13 01:37:07;;;;;;;7.70;0.90;;;15.60;99.90;;;;;;4990279;28;20023;-86
2023/08/13 01:39:33;;;;;;;7.90;0.98;;;15.60;99.90;;;;;;4991278;28;20026;-86
2023/08/13 01:41:58;;;;;;;8.52;1.00;;;15.60;99.90;;;;;;4994630;28;20049;-86
2023/08/13 01:44:24;;;;;;;5.60;1.10;;;15.60;99.90;;;;;;4995057;28;20038;-85
2023/08/13 01:46:50;;;;;;;7.75;1.35;;;15.60;99.90;;;;;;4994597;28;20395;-85
2023/08/13 01:49:15;;;;;;;11.63;1.27;;;15.60;99.90;;;;;;4991810;28;20098;-86
2023/08/13 01:51:41;;;;;;;9.32;1.00;;;15.60;99.90;;;;;;4986054;28;20041;-85
2023/08/13 01:54:07;;;;;;;5.50;0.70;;;15.60;99.90;;;;;;4986285;28;20081;-85
2023/08/13 01:56:32;;;;;;;11.18;1.33;;;15.60;99.90;;;;;;4994797;28;20030;-85
2023/08/13 01:58:58;;;;;;;9.90;0.88;;;15.60;99.90;;;;;;4980586;28;20027;-86
2023/08/13 02:01:23;;;;;;;10.32;1.00;;;15.50;99.90;;;;;;4992571;28;20030;-86
2023/08/13 02:03:49;;;;;;;7.00;1.30;;;15.50;99.90;;;;;;4993900;28;20026;-85
2023/08/13 02:06:15;;;;;;;10.32;1.27;;;15.50;99.90;;;;;;4999476;28;20049;-85
2023/08/13 02:08:40;;;;;;;8.95;1.10;;;15.50;99.90;;;;;;4989570;28;20030;-85
2023/08/13 02:11:06;;;;;;;8.63;1.00;;;15.50;99.90;;;;;;5017469;28;20022;-85
2023/08/13 02:13:31;;;;;;;9.68;1.17;;;15.50;99.90;;;;;;4995723;28;20030;-85
2023/08/13 02:16:04;;;;;;;5.45;0.90;;;15.40;99.90;;;;;;4993995;28;20026;-85
2023/08/13 02:18:30;;;;;;;7.55;1.42;;;15.40;99.90;;;;;;4991514;28;20088;-85
2023/08/13 02:20:56;;;;;;;8.25;1.05;;;15.40;99.90;;;;;;4988302;28;20026;-85
2023/08/13 02:23:21;;;;;;;10.23;1.70;;;15.40;99.90;;;;;;4992934;28;20026;-85
2023/08/13 02:25:47;;;;;;;8.80;1.33;;;15.30;99.90;;;;;;4988185;28;20038;-85
2023/08/13 02:28:13;;;;;;;10.07;1.30;;;15.30;99.90;;;;;;4997199;28;20038;-86
2023/08/13 02:30:39;;;;;;;10.82;1.42;;;15.30;99.90;;;;;;4995708;28;20026;-85
2023/08/13 02:33:04;;;;;;;8.95;1.52;;;15.30;99.90;;;;;;4996804;28;20018;-86
2023/08/13 02:35:30;;;;;;;7.25;1.30;;;15.30;99.90;;;;;;4990133;28;20660;-85
2023/08/13 02:37:55;;;;;;;9.60;1.08;;;15.30;99.90;;;;;;4993303;28;20038;-85
2023/08/13 02:40:21;;;;;;;8.52;1.20;;;15.40;99.90;;;;;;4984676;28;20019;-86
2023/08/13 02:42:47;;;;;;;12.95;1.92;;;15.40;99.90;;;;;;4993485;28;20026;-85
2023/08/13 02:45:12;;;;;;;10.75;1.50;;;15.40;99.90;;;;;;4991051;28;20046;-86
2023/08/13 02:47:38;;;;;;;11.35;2.08;;;15.40;99.90;;;;;;5009037;28;20023;-85
2023/08/13 02:50:03;;;;;;;7.32;1.40;;;15.30;99.90;;;;;;4993489;28;20482;-86
2023/08/13 02:52:30;;;;;;;14.43;1.90;;;15.30;99.90;;;;;;4987565;28;20053;-86
2023/08/13 02:54:55;;;;;;;8.65;1.60;;;15.30;99.90;;;;;;4998014;28;20070;-86
2023/08/13 02:57:21;;;;;;;4.13;0.80;;;15.30;99.90;;;;;;4994174;28;20030;-86
2023/08/13 02:59:46;;;;;;;8.23;1.13;;;15.30;99.90;;;;;;4989450;28;20038;-86
2023/08/13 03:02:12;;;;;;;7.00;1.27;;;15.30;99.90;;;;;;4990623;28;20029;-86
2023/08/13 03:04:38;;;;;;;13.50;1.25;;;15.30;99.90;;;;;;4991541;28;20069;-86
2023/08/13 03:07:03;;;;;;;9.05;1.85;;;15.30;99.90;;;;;;5006109;28;21122;-85
2023/08/13 03:09:29;;;;;;;8.18;1.20;;;15.30;99.90;;;;;;4983283;28;20022;-86
2023/08/13 03:11:54;;;;;;;6.25;1.23;;;15.20;99.90;;;;;;4992677;28;20080;-86
2023/08/13 03:14:20;;;;;;;10.07;1.05;;;15.20;99.90;;;;;;4990948;28;20440;-86
2023/08/13 03:16:45;;;;;;;8.15;1.17;;;15.20;99.90;;;;;;4981022;28;20026;-85
2023/08/13 03:19:11;;;;;;;10.65;1.48;;;15.10;99.90;;;;;;4991633;28;20026;-85
2023/08/13 03:21:36;;;;;;;11.68;2.95;;;15.20;99.90;;;;;;4990872;28;20022;-86
2023/08/13 03:24:02;;;;;;;12.25;1.58;;;15.10;99.90;;;;;;4991375;28;20034;-86
2023/08/13 03:26:28;;;;;;;9.48;1.52;;;15.10;99.90;;;;;;4984446;28;20031;-85
2023/08/13 03:28:53;;;;;;;5.38;1.00;;;15.10;99.90;;;;;;4989334;28;20037;-86
2023/08/13 03:31:19;;;;;;;7.82;0.93;;;15.10;99.90;;;;;;4982294;28;20507;-86
2023/08/13 03:33:44;;;;;;;8.10;1.17;;;15.00;99.90;;;;;;4981650;28;20026;-85
2023/08/13 03:36:10;;;;;;;8.75;1.48;;;15.00;99.90;;;;;;4991954;28;20073;-85
2023/08/13 03:38:35;;;;;;;7.15;1.13;;;14.90;99.90;;;;;;4989422;28;20458;-86
2023/08/13 03:41:01;;;;;;;7.60;1.67;;;14.90;99.90;;;;;;4982394;28;20532;-85
2023/08/13 03:43:26;;;;;;;11.63;1.88;;;14.90;99.90;;;;;;4987890;28;20030;-85
2023/08/13 03:45:52;;;;;;;5.78;1.17;;;14.90;99.90;;;;;;4986548;28;20034;-86
2023/08/13 03:48:17;;;;;;;10.65;1.77;;;14.80;99.90;;;;;;4987249;28;20475;-85
2023/08/13 03:50:43;;;;;;;13.10;1.38;;;14.80;99.90;;;;;;4990788;28;20026;-86
2023/08/13 03:53:09;;;;;;;13.05;1.90;;;14.80;99.90;;;;;;4992393;28;20057;-86
2023/08/13 03:55:36;;;;;;;9.07;1.38;;;14.70;99.90;;;;;;4981203;28;20543;-85
2023/08/13 03:58:02;;;;;;;10.40;1.65;;;14.70;99.90;;;;;;4978367;28;20061;-83
2023/08/13 04:00:28;;;;;;;6.50;1.48;;;14.80;99.90;;;;;;4986297;28;20399;-85
2023/08/13 04:02:54;;;;;;;5.35;1.20;;;14.70;99.90;;;;;;4994483;28;20034;-85
2023/08/13 04:05:20;;;;;;;8.30;1.35;;;14.70;99.90;;;;;;4978201;28;20038;-86
2023/08/13 04:07:45;;;;;;;8.95;1.42;;;14.70;99.90;;;;;;4984204;28;20039;-85
2023/08/13 04:10:11;;;;;;;10.95;1.85;;;14.70;99.90;;;;;;4989074;28;20128;-85
2023/08/13 04:12:36;;;;;;;9.00;1.75;;;14.80;99.90;;;;;;4987940;28;20150;-85
2023/08/13 04:15:03;;;;;;;8.13;2.28;;;14.80;99.90;;;;;;4992418;28;20506;-85
2023/08/13 04:17:28;;;;;;;6.90;1.13;;;14.70;99.90;;;;;;4986481;28;20478;-85
2023/08/13 04:19:54;;;;;;;9.18;1.88;;;14.80;99.90;;;;;;4981204;28;20113;-86
2023/08/13 04:22:19;;;;;;;7.47;1.30;;;14.80;99.90;;;;;;4989312;28;20164;-86
2023/08/13 04:24:50;;;;;;;10.88;2.30;;;14.90;99.90;;;;;;4993049;28;20092;-85
2023/08/13 04:27:19;;;;;;;8.80;1.30;;;14.90;99.90;;;;;;4994605;28;20120;-85
2023/08/13 04:29:45;;;;;;;9.52;1.55;;;14.90;99.90;;;;;;4989796;28;20034;-87
2023/08/13 04:32:10;;;;;;;7.85;1.50;;;15.00;99.90;;;;;;4990222;28;20037;-86
2023/08/13 04:34:36;;;;;;;9.57;1.13;;;15.00;99.90;;;;;;4991813;28;20027;-86
2023/08/13 04:37:01;;;;;;;10.77;1.80;;;15.00;99.90;;;;;;4990874;28;20022;-85
2023/08/13 04:39:27;;;;;;;9.48;2.03;;;15.10;99.90;;;;;;4982628;28;20039;-85
2023/08/13 04:41:57;;;;;;;8.02;1.42;;;15.10;99.90;;;;;;4989721;28;20032;-85
2023/08/13 04:44:22;;;;;;;6.07;1.80;;;15.20;99.90;;;;;;4991551;28;20126;-85
2023/08/13 04:46:48;;;;;;;9.07;1.67;;;15.20;99.90;;;;;;4986781;28;20133;-85
2023/08/13 04:49:13;;;;;;;13.30;1.63;;;15.20;99.90;;;;;;4991483;28;20113;-85
2023/08/13 04:51:39;;;;;;;10.55;1.10;;;15.20;99.90;;;;;;4990297;28;20038;-86
2023/08/13 04:54:05;;;;;;;7.45;0.90;;;15.30;99.90;;;;;;4981853;28;20149;-85
2023/08/13 04:56:30;;;;;;;11.98;1.48;;;15.30;99.90;;;;;;4991214;28;20045;-85
2023/08/13 04:58:56;;;;;;;9.63;1.45;;;15.30;99.90;;;;;;4986768;28;20035;-85
2023/08/13 05:01:22;;;;;;;9.20;1.50;;;15.30;99.90;;;;;;4992247;28;20054;-85
2023/08/13 05:03:47;;;;;;;8.15;1.63;;;15.40;99.90;;;;;;4989915;28;20030;-85
2023/08/13 05:06:13;;;;;;;7.40;1.20;;;15.40;99.90;;;;;;4991813;28;20092;-86
2023/08/13 05:08:38;;;;;;;10.18;1.42;;;15.40;99.90;;;;;;4984603;28;20902;-85
2023/08/13 05:11:04;;;;;;;7.97;1.42;;;15.40;99.90;;;;;;4986681;28;20403;-86
2023/08/13 05:13:30;;;;;;;10.65;1.80;;;15.40;99.90;;;;;;4992289;28;20023;-85
2023/08/13 05:15:55;;;;;;;8.90;1.52;;;15.50;99.90;;;;;;4986749;28;20038;-85
2023/08/13 05:18:21;;;;;;;14.52;1.75;;;15.50;99.90;;;;;;4987442;28;20026;-86
2023/08/13 05:20:47;;;;;;;12.07;1.85;;;15.60;99.90;;;;;;4991587;28;20030;-85
2023/08/13 05:23:12;;;;;;;18.13;1.80;;;15.60;99.90;;;;;;4994965;28;20019;-86
2023/08/13 05:25:38;;;;;;;10.52;1.83;;;15.60;99.90;;;;;;4991055;28;20038;-85
2023/08/13 05:28:08;;;;;;;6.32;1.50;;;15.60;99.90;;;;;;4987061;28;20483;-86
2023/08/13 05:30:37;;;;;;;11.35;1.85;;;15.70;99.90;;;;;;4984964;28;20029;-86
2023/08/13 05:33:06;;;;;;;10.05;1.83;;;15.70;99.90;;;;;;5010945;28;20435;-86
2023/08/13 05:35:32;;;;;;;10.77;2.17;;;15.70;99.90;;;;;;4992873;28;20027;-85
2023/08/13 05:37:57;;;;;;;9.82;1.75;;;15.80;99.90;;;;;;4993294;28;20486;-85
2023/08/13 05:40:23;;;;;;;13.02;1.92;;;15.80;99.90;;;;;;5002828;28;20021;-85
2023/08/13 05:42:49;;;;;;;8.30;1.73;;;15.80;99.90;;;;;;4997154;28;20033;-87
2023/08/13 05:45:15;;;;;;;12.50;2.60;;;15.80;99.90;;;;;;4990322;28;21361;-86
2023/08/13 05:47:41;;;;;;;11.27;2.97;;;15.90;99.90;;;;;;4993894;28;20041;-85
2023/08/13 05:50:07;;;;;;;7.15;2.10;;;15.90;99.90;;;;;;4998144;28;20057;-86
2023/08/13 05:52:33;;;;;;;8.02;1.85;;;16.00;99.90;;;;;;4999965;28;20026;-85
2023/08/13 05:55:07;;;;;;;11.80;2.28;;;16.10;99.90;;;;;;5011287;28;20068;-87
2023/08/13 05:57:33;;;;;;;11.50;2.47;;;16.20;99.90;;;;;;4997042;28;20036;-84
2023/08/13 05:59:59;;;;;;;10.35;2.53;;;16.20;99.90;;;;;;4987562;28;20027;-84
2023/08/13 06:02:25;;;;;;;13.45;3.10;;;16.20;99.90;;;;;;4990513;28;20541;-85
2023/08/13 06:04:50;;;;;;;6.60;2.15;;;16.40;99.90;;;;;;4990014;28;20145;-86
2023/08/13 06:07:16;;;;;;;9.63;3.25;;;16.50;99.90;;;;;;4994567;28;20037;-87
2023/08/13 06:09:41;;;;;;;10.13;1.80;;;16.50;99.90;;;;;;4997826;28;20032;-86
2023/08/13 06:12:08;;;;;;;14.10;2.58;;;16.60;99.90;;;;;;4997650;28;20060;-86
2023/08/13 06:14:33;;;;;;;10.60;2.20;;;16.60;99.90;;;;;;4997098;28;20032;-86
2023/08/13 06:16:59;;;;;;;13.63;2.65;;;16.70;99.90;;;;;;4996196;28;20383;-86
2023/08/13 06:19:25;;;;;;;10.65;2.50;;;16.80;99.90;;;;;;4996715;28;20029;-86
2023/08/13 06:21:50;;;;;;;12.85;2.10;;;16.90;99.90;;;;;;4980888;28;20080;-86
2023/08/13 06:24:16;;;;;;;14.30;2.13;;;17.00;99.90;;;;;;4989268;28;20037;-85
2023/08/13 06:26:42;;;;;;;5.65;1.95;;;17.10;99.90;;;;;;4994268;28;20101;-85
2023/08/13 06:29:08;;;;;;;8.23;2.28;;;17.20;99.90;;;;;;5005566;28;20029;-85
2023/08/13 06:31:35;;;;;;;8.90;2.00;;;17.40;99.90;;;;;;4994728;28;20013;-85
2023/08/13 06:34:01;;;;;;;9.48;1.60;;;17.50;99.90;;;;;;4990138;28;20025;-86
2023/08/13 06:36:26;;;;;;;11.55;1.65;;;17.60;99.90;;;;;;5003143;28;20030;-88
2023/08/13 06:38:52;;;;;;;12.80;2.47;;;17.70;99.90;;;;;;4996284;28;20029;-85
2023/08/13 06:41:17;;;;;;;6.88;1.83;;;17.80;99.90;;;;;;4996565;28;20025;-86
2023/08/13 06:43:43;;;;;;;6.28;1.42;;;17.80;99.90;;;;;;4987012;28;20030;-86
2023/08/13 06:46:08;;;;;;;12.07;2.28;;;17.90;99.90;;;;;;5002996;28;20045;-86
2023/08/13 06:48:34;;;;;;;10.13;1.92;;;18.00;99.90;;;;;;4987915;28;20555;-86
2023/08/13 06:51:00;;;;;;;9.05;1.65;;;18.20;99.90;;;;;;4987548;28;20430;-86
2023/08/13 06:53:26;;;;;;;9.82;2.00;;;18.20;99.90;;;;;;5003672;28;20026;-86
2023/08/13 06:55:52;;;;;;;10.05;1.38;;;18.30;99.90;;;;;;5005425;28;20037;-86
2023/08/13 06:58:18;;;;;;;10.65;1.58;;;18.50;99.90;;;;;;5000035;28;20030;-86
2023/08/13 07:00:44;;;;;;;10.98;1.27;;;18.60;99.90;;;;;;4990536;28;20033;-85
2023/08/13 07:03:10;;;;;;;11.52;1.52;;;18.80;99.90;;;;;;4993517;28;20044;-85
2023/08/13 07:05:36;;;;;;;7.30;1.20;;;18.90;99.90;;;;;;4993447;28;20042;-86
2023/08/13 07:08:02;;;;;;;6.65;1.27;;;19.20;99.90;;;;;;4987776;28;20022;-86
2023/08/13 07:10:28;;;;;;;5.50;1.05;;;19.40;99.90;;;;;;4985753;28;20608;-86
2023/08/13 07:12:54;;;;;;;11.40;1.30;;;19.70;99.90;;;;;;4990305;28;20018;-86
2023/08/13 07:15:20;;;;;;;8.90;1.40;;;19.90;99.90;;;;;;4995813;28;20025;-85
2023/08/13 07:17:45;;;;;;;8.93;1.52;;;20.00;99.90;;;;;;5014255;28;20022;-85
2023/08/13 07:20:13;;;;;;;7.53;1.05;;;20.10;99.90;;;;;;5004662;28;20593;-86
2023/08/13 07:22:45;;;;;;;7.55;1.58;;;20.20;99.90;;;;;;5005353;28;20018;-86
2023/08/13 07:25:12;;;;;;;7.15;1.10;;;20.20;99.90;;;;;;5010480;28;20033;-85
2023/08/13 07:27:39;;;;;;;4.30;1.05;;;20.10;99.90;;;;;;4977631;28;20030;-86
2023/08/13 07:30:07;;;;;;;13.57;2.22;;;20.20;99.90;;;;;;5004655;28;20017;-85
2023/08/13 07:32:34;;;;;;;8.73;1.50;;;20.20;99.90;;;;;;4997670;28;20068;-85
2023/08/13 07:35:00;;;;;;;7.70;1.23;;;20.20;99.90;;;;;;4987961;28;20026;-85
2023/08/13 07:37:28;;;;;;;9.82;1.40;;;20.30;99.90;;;;;;4992746;28;20042;-85
2023/08/13 07:39:54;;;;;;;6.30;1.42;;;20.40;99.90;;;;;;5008109;28;20077;-85
2023/08/13 07:42:20;;;;;;;7.82;0.93;;;20.60;99.90;;;;;;4978261;28;20027;-85
2023/08/13 07:44:47;;;;;;;7.32;1.17;;;20.70;99.90;;;;;;4992282;28;20030;-85
2023/08/13 07:47:13;;;;;;;9.27;1.00;;;20.70;99.90;;;;;;4981883;28;20127;-85
2023/08/13 07:49:39;;;;;;;8.32;1.25;;;20.80;99.90;;;;;;4995327;28;20471;-86
2023/08/13 07:52:04;;;;;;;10.65;1.25;;;21.00;99.90;;;;;;4990047;28;20026;-86
2023/08/13 07:54:30;;;;;;;7.57;1.00;;;21.10;99.90;;;;;;4989477;28;20125;-86
2023/08/13 07:56:55;;;;;;;12.95;1.40;;;21.20;99.90;;;;;;4988703;28;20030;-86
2023/08/13 07:59:21;;;;;;;5.95;1.10;;;21.20;99.90;;;;;;4995187;28;20026;-86
2023/08/13 08:01:46;;;;;;;6.45;1.10;;;21.20;99.90;;;;;;4993884;28;20379;-87
2023/08/13 08:04:12;;;;;;;10.88;1.40;;;21.30;99.90;;;;;;4994244;28;20482;-86
2023/08/13 08:06:38;;;;;;;10.13;1.25;;;21.30;99.90;;;;;;4995580;28;20034;-86
2023/08/13 08:09:05;;;;;;;6.85;0.88;;;21.40;99.90;;;;;;4992433;28;20031;-86
2023/08/13 08:11:31;;;;;;;9.85;1.88;;;21.50;99.90;;;;;;4995962;28;20033;-86
2023/08/13 08:13:56;;;;;;;8.77;1.10;;;21.60;99.90;;;;;;4989142;28;20077;-86
2023/08/13 08:16:22;;;;;;;12.18;1.73;;;21.60;99.90;;;;;;5005840;28;20025;-86
2023/08/13 08:18:48;;;;;;;5.38;0.80;;;21.70;99.90;;;;;;4989691;28;20036;-87
2023/08/13 08:21:13;;;;;;;8.18;1.35;;;21.80;99.90;;;;;;4982448;28;20018;-86
2023/08/13 08:23:39;;;;;;;5.95;0.80;;;21.90;99.90;;;;;;4995400;28;20022;-86
2023/08/13 08:26:04;;;;;;;7.40;0.80;;;21.90;99.90;;;;;;5003328;28;20117;-86
2023/08/13 08:28:30;;;;;;;6.20;1.00;;;21.90;99.90;;;;;;4980211;28;20027;-86
2023/08/13 08:30:55;;;;;;;7.00;1.13;;;21.80;99.90;;;;;;4991908;28;20401;-86
2023/08/13 08:33:23;;;;;;;7.65;1.05;;;21.80;99.90;;;;;;4995124;28;20393;-86
2023/08/13 08:35:49;;;;;;;9.77;1.38;;;21.80;99.90;;;;;;4979343;28;20033;-86
2023/08/13 08:38:15;;;;;;;5.53;0.95;;;21.80;99.90;;;;;;4988231;28;20100;-87
2023/08/13 08:40:46;;;;;;;10.57;1.45;;;21.90;99.90;;;;;;5008486;28;20111;-86
2023/08/13 08:43:13;;;;;;;10.35;1.70;;;22.10;99.90;;;;;;4987725;28;20386;-86
2023/08/13 08:45:39;;;;;;;7.28;0.98;;;22.30;99.90;;;;;;5010155;28;20037;-86
2023/08/13 08:48:06;;;;;;;9.00;0.80;;;22.40;99.90;;;;;;4993049;28;20501;-86
2023/08/13 08:50:34;;;;;;;7.40;0.95;;;22.50;99.90;;;;;;4994210;28;20025;-86
2023/08/13 08:53:00;;;;;;;7.13;1.17;;;22.60;99.90;;;;;;4995637;28;20036;-85
2023/08/13 08:55:26;;;;;;;5.95;0.80;;;22.60;99.90;;;;;;4980593;28;20061;-85
2023/08/13 08:57:54;;;;;;;9.13;0.70;;;22.70;99.90;;;;;;4997212;28;20401;-85
2023/08/13 09:00:19;;;;;;;5.22;0.60;;;22.90;99.90;;;;;;4987101;28;20034;-85
2023/08/13 09:02:45;;;;;;;5.75;0.80;;;23.10;99.90;;;;;;4999041;28;20084;-86
2023/08/13 09:05:11;;;;;;;5.72;0.68;;;23.20;99.90;;;;;;4981560;28;20061;-85
2023/08/13 09:07:42;;;;;;;8.18;1.15;;;23.40;99.90;;;;;;4996509;28;20038;-85
2023/08/13 09:10:08;;;;;;;6.68;0.60;;;23.40;99.90;;;;;;4999097;28;20076;-86
2023/08/13 09:12:35;;;;;;;7.03;0.82;;;23.30;99.90;;;;;;4991770;28;20064;-85
2023/08/13 09:15:07;;;;;;;6.13;0.75;;;23.30;99.90;;;;;;4996769;28;20625;-85
2023/08/13 09:17:32;;;;;;;9.07;1.20;;;23.30;99.90;;;;;;4985313;28;20513;-84
2023/08/13 09:20:00;;;;;;;7.38;0.50;;;23.30;99.90;;;;;;4987334;28;20113;-85
2023/08/13 09:22:32;;;;;;;6.45;0.80;;;23.40;99.90;;;;;;4995472;28;20029;-85
2023/08/13 09:25:01;;;;;;;6.90;0.60;;;23.50;99.90;;;;;;4999296;28;20032;-86
2023/08/13 09:27:27;;;;;;;5.95;1.17;;;23.50;99.90;;;;;;5001013;28;20498;-86
2023/08/13 09:29:53;;;;;;;5.32;1.10;;;23.50;99.90;;;;;;5003375;28;20080;-85
2023/08/13 09:32:20;;;;;;;6.30;0.98;;;23.50;99.90;;;;;;5004117;28;20040;-85
2023/08/13 09:34:46;;;;;;;5.32;0.80;;;23.50;99.90;;;;;;4994681;28;20116;-86
2023/08/13 09:37:11;;;;;;;6.20;0.98;;;23.40;99.90;;;;;;4991905;28;20033;-85
2023/08/13 09:39:37;;;;;;;5.55;0.93;;;23.40;99.90;;;;;;5000944;28;20026;-85
2023/08/13 09:42:05;;;;;;;7.40;0.70;;;23.30;99.90;;;;;;5015643;28;20034;-85
2023/08/13 09:44:31;;;;;;;6.28;1.42;;;23.30;99.90;;;;;;5016024;28;20037;-85
2023/08/13 09:47:08;;;;;;;6.07;0.80;;;23.40;99.90;;;;;;5011360;28;20034;-86
2023/08/13 09:49:34;;;;;;;7.13;0.73;;;23.50;99.90;;;;;;4995861;28;20026;-84
2023/08/13 09:52:09;;;;;;;6.93;0.77;;;23.60;99.90;;;;;;4996888;28;20048;-84
2023/08/13 09:54:50;;;;;;;7.60;0.80;;;23.50;99.90;;;;;;5021003;28;20046;-85
2023/08/13 09:57:17;;;;;;;5.97;0.73;;;23.50;99.90;;;;;;5010769;28;20030;-85
2023/08/13 09:59:44;;;;;;;5.20;0.93;;;23.50;99.90;;;;;;5006859;28;20396;-84
2023/08/13 10:02:14;;;;;;;5.07;0.70;;;23.60;99.90;;;;;;4990930;28;20021;-84
2023/08/13 10:04:40;;;;;;;7.22;0.70;;;23.60;99.90;;;;;;4990399;28;20030;-86
2023/08/13 10:07:07;;;;;;;8.05;1.00;;;23.70;99.90;;;;;;4990996;28;20039;-86
2023/08/13 10:09:33;;;;;;;6.63;0.63;;;23.80;99.90;;;;;;5012843;28;20026;-85
2023/08/13 10:12:00;;;;;;;6.47;0.70;;;23.90;99.90;;;;;;4995419;28;20441;-85
2023/08/13 10:14:26;;;;;;;3.58;0.40;;;24.00;99.90;;;;;;4993797;28;20034;-86
2023/08/13 10:16:52;;;;;;;5.05;0.68;;;24.10;99.90;;;;;;4986772;28;20033;-85
2023/08/13 10:19:19;;;;;;;5.43;0.60;;;24.20;99.90;;;;;;5001642;28;20040;-86
2023/08/13 10:21:56;;;;;;;3.03;0.60;;;24.30;99.90;;;;;;5014090;28;20026;-85
2023/08/13 10:24:25;;;;;;;5.03;0.57;;;24.30;99.90;;;;;;5007489;28;20018;-86
2023/08/13 10:26:50;;;;;;;6.68;0.88;;;24.30;99.90;;;;;;4993607;28;20044;-86
2023/08/13 10:29:20;;;;;;;5.90;0.70;;;24.40;99.90;;;;;;5013117;28;20025;-86
2023/08/13 10:31:59;;;;;;;6.90;0.90;;;24.60;99.90;;;;;;5003852;28;20052;-86
2023/08/13 10:34:38;;;;;;;5.72;0.50;;;24.60;99.90;;;;;;5002103;28;20029;-86
2023/08/13 10:37:12;;;;;;;3.95;0.68;;;24.80;99.90;;;;;;5002074;28;20026;-87
2023/08/13 10:39:42;;;;;;;6.80;0.77;;;24.80;99.90;;;;;;4999122;28;20497;-86
2023/08/13 10:42:37;;;;;;;5.82;1.05;;;24.70;99.90;;;;;;4979790;28;20031;-86
2023/08/13 10:45:08;;;;;;;6.32;0.65;;;24.60;99.90;;;;;;4985074;28;20041;-86
2023/08/13 10:47:59;;;;;;;6.57;0.70;;;24.60;99.90;;;;;;5001785;28;20038;-86
2023/08/13 10:50:40;;;;;;;4.28;0.70;;;24.60;99.90;;;;;;4989777;28;20272;-87
2023/08/13 10:53:22;;;;;;;5.30;0.77;;;24.50;99.90;;;;;;4996002;28;20037;-86
2023/08/13 10:55:49;;;;;;;;;;;24.40;99.90;;;;;;5007904;28;20080;-85
2023/08/13 10:58:50;;;;;;;3.17;0.50;;;24.50;99.90;;;;;;5004930;28;20317;-87
2023/08/13 11:01:19;;;;;;;6.45;0.70;;;24.70;99.90;;;;;;4969300;28;20035;-86
2023/08/13 11:04:03;;;;;;;5.68;0.70;;;24.90;99.90;;;;;;5005392;28;20162;-87
2023/08/13 11:06:29;;;;;;;8.65;1.25;;;25.10;99.90;;;;;;5021105;28;20132;-86
2023/08/13 11:08:56;;;;;;;3.63;0.60;;;25.30;99.90;;;;;;4997525;28;20045;-87
2023/08/13 11:11:21;;;;;;;5.25;0.75;;;25.40;99.90;;;;;;5013139;28;20037;-87
2023/08/13 11:13:48;;;;;;;6.78;0.80;;;25.50;99.90;;;;;;4995647;28;20030;-86
2023/08/13 11:16:14;;;;;;;7.68;0.65;;;25.40;99.90;;;;;;4989799;28;20023;-87
2023/08/13 11:18:39;;;;;;;3.35;0.52;;;25.40;99.50;;;;;;4980112;28;20081;-87
2023/08/13 11:21:05;;;;;;;5.13;0.63;;;25.40;99.50;;;;;;4993821;28;20490;-86
2023/08/13 11:23:31;;;;;;;8.07;0.70;;;25.40;99.30;;;;;;4987300;28;20048;-86
2023/08/13 11:25:57;;;;;;;6.20;0.68;;;25.50;99.60;;;;;;4989837;28;20060;-87
2023/08/13 11:28:25;;;;;;;6.68;0.70;;;25.50;98.80;;;;;;4993404;28;20018;-87
2023/08/13 11:30:53;;;;;;;4.07;0.68;;;25.40;98.80;;;;;;5004107;28;20124;-84
2023/08/13 11:33:19;;;;;;;5.72;0.70;;;25.40;98.60;;;;;;4983343;28;20125;-86
2023/08/13 11:35:45;;;;;;;4.88;0.65;;;25.50;98.10;;;;;;5003122;28;20131;-87
2023/08/13 11:38:11;;;;;;;7.05;0.65;;;25.40;97.60;;;;;;4986149;28;20147;-86
2023/08/13 11:40:37;;;;;;;4.10;0.52;;;25.40;97.70;;;;;;4994566;28;20037;-86
2023/08/13 11:43:04;;;;;;;7.93;1.10;;;25.40;98.10;;;;;;4991521;28;20141;-85
2023/08/13 11:45:33;;;;;;;6.05;0.52;;;25.60;98.70;;;;;;4998640;28;20036;-85
2023/08/13 11:48:20;;;;;;;7.30;0.70;;;25.90;98.30;;;;;;4992312;28;20556;-86
2023/08/13 11:50:52;;;;;;;5.53;0.60;;;26.00;98.10;;;;;;5019121;28;20022;-87
2023/08/13 11:53:19;;;;;;;4.38;0.52;;;26.00;97.70;;;;;;4997722;28;20029;-86
2023/08/13 11:55:46;;;;;;;6.57;0.70;;;26.20;97.40;;;;;;5002872;28;20046;-86
2023/08/13 11:58:19;;;;;;;6.57;0.80;;;26.30;97.30;;;;;;4989097;28;20030;-86
2023/08/13 12:00:47;;;;;;;3.88;0.60;;;26.50;96.10;;;;;;5011541;28;20034;-85
2023/08/13 12:03:13;;;;;;;5.68;0.82;;;26.50;95.50;;;;;;4999619;28;20052;-85
2023/08/13 12:05:39;;;;;;;5.60;0.60;;;26.30;95.50;;;;;;4999666;28;20030;-86
2023/08/13 12:08:09;;;;;;;5.57;0.60;;;26.30;95.20;;;;;;4997231;28;20499;-86
2023/08/13 12:10:38;;;;;;;8.70;1.05;;;26.30;95.00;;;;;;5010957;28;20068;-84
2023/08/13 12:13:04;;;;;;;6.95;0.70;;;26.20;94.60;;;;;;5001229;28;20450;-86
2023/08/13 12:15:31;;;;;;;7.18;0.73;;;26.00;94.90;;;;;;5013057;28;20100;-85
2023/08/13 12:17:57;;;;;;;6.13;0.88;;;25.90;94.50;;;;;;4990554;28;20029;-85
2023/08/13 12:20:23;;;;;;;5.45;0.73;;;25.60;94.90;;;;;;4994305;28;20570;-85
2023/08/13 12:22:49;;;;;;;5.32;0.70;;;25.60;95.20;;;;;;4990131;28;20509;-85
2023/08/13 12:25:15;;;;;;;3.60;0.80;;;25.70;95.00;;;;;;4992947;28;20036;-85
2023/08/13 12:27:42;;;;;;;7.32;0.80;;;25.80;95.50;;;;;;4980538;28;20030;-85
2023/08/13 12:30:09;;;;;;;5.70;0.70;;;25.90;95.80;;;;;;4985495;28;20033;-85
2023/08/13 12:32:34;;;;;;;7.47;1.23;;;26.00;95.60;;;;;;4998553;28;20033;-86
2023/08/13 12:35:00;;;;;;;6.72;0.90;;;26.10;95.30;;;;;;5012144;28;20025;-86
2023/08/13 12:37:25;;;;;;;4.95;0.90;;;26.30;95.10;;;;;;4998219;28;20018;-86
2023/08/13 12:39:51;;;;;;;5.18;0.77;;;26.50;94.40;;;;;;4994669;28;20034;-87
2023/08/13 12:42:16;;;;;;;5.53;0.60;;;26.50;94.20;;;;;;4994248;28;20033;-86
2023/08/13 12:44:42;;;;;;;6.93;1.23;;;26.50;93.70;;;;;;4989066;28;20026;-86